sensor_id;sensor_type;location;lat;lon;timestamp;P1;durP1;ratioP1;P2;durP2;ratioP2
37905;SDS011;23739;51.448;6.674;2022-10-23T00:04:01;20.13;;;5.45;;
37905;SDS011;23739;51.448;6.674;2022-10-23T00:06:28;12.27;;;5.35;;
37905;SDS011;23739;51.448;6.674;2022-10-23T00:08:55;13.32;;;6.35;;
37905;SDS011;23739;51.448;6.674;2022-10-23T00:11:22;14.77;;;5.80;;
37905;SDS011;23739;51.448;6.674;2022-10-23T00:13:49;10.07;;;5.25;;
37905;SDS011;23739;51.448;6.674;2022-10-23T00:16:15;17.35;;;5.95;;
37905;SDS011;23739;51.448;6.674;2022-10-23T00:18:41;13.75;;;5.80;;
37905;SDS011;23739;51.448;6.674;2022-10-23T00:21:09;13.80;;;6.50;;
37905;SDS011;23739;51.448;6.674;2022-10-23T00:23:36;16.10;;;6.15;;
37905;SDS011;23739;51.448;6.674;2022-10-23T00:26:03;13.85;;;6.07;;
37905;SDS011;23739;51.448;6.674;2022-10-23T00:28:29;18.77;;;7.00;;
37905;SDS011;23739;51.448;6.674;2022-10-23T00:30:55;12.73;;;6.32;;
37905;SDS011;23739;51.448;6.674;2022-10-23T00:33:22;21.13;;;7.05;;
37905;SDS011;23739;51.448;6.674;2022-10-23T00:35:48;12.77;;;5.60;;
37905;SDS011;23739;51.448;6.674;2022-10-23T00:38:14;19.30;;;6.13;;
37905;SDS011;23739;51.448;6.674;2022-10-23T00:40:40;11.80;;;5.97;;
37905;SDS011;23739;51.448;6.674;2022-10-23T00:43:15;18.67;;;7.45;;
37905;SDS011;23739;51.448;6.674;2022-10-23T00:45:41;14.00;;;6.25;;
37905;SDS011;23739;51.448;6.674;2022-10-23T00:48:07;11.40;;;5.57;;
37905;SDS011;23739;51.448;6.674;2022-10-23T00:50:34;14.52;;;5.25;;
37905;SDS011;23739;51.448;6.674;2022-10-23T00:53:01;9.57;;;4.72;;
37905;SDS011;23739;51.448;6.674;2022-10-23T00:55:28;10.48;;;3.88;;
37905;SDS011;23739;51.448;6.674;2022-10-23T00:57:55;8.38;;;3.80;;
37905;SDS011;23739;51.448;6.674;2022-10-23T01:00:29;6.63;;;3.58;;
37905;SDS011;23739;51.448;6.674;2022-10-23T01:02:55;17.67;;;3.75;;
37905;SDS011;23739;51.448;6.674;2022-10-23T01:05:29;11.68;;;4.38;;
37905;SDS011;23739;51.448;6.674;2022-10-23T01:08:01;9.15;;;4.20;;
37905;SDS011;23739;51.448;6.674;2022-10-23T01:10:39;7.18;;;3.10;;
37905;SDS011;23739;51.448;6.674;2022-10-23T01:13:11;17.60;;;4.78;;
37905;SDS011;23739;51.448;6.674;2022-10-23T01:25:45;9.07;;;3.40;;
37905;SDS011;23739;51.448;6.674;2022-10-23T01:28:14;7.00;;;2.95;;
37905;SDS011;23739;51.448;6.674;2022-10-23T01:30:42;10.07;;;3.58;;
37905;SDS011;23739;51.448;6.674;2022-10-23T01:33:10;7.28;;;2.92;;
37905;SDS011;23739;51.448;6.674;2022-10-23T01:41:03;12.93;;;2.88;;
37905;SDS011;23739;51.448;6.674;2022-10-23T01:43:36;4.95;;;2.30;;
37905;SDS011;23739;51.448;6.674;2022-10-23T01:46:04;8.32;;;2.60;;
37905;SDS011;23739;51.448;6.674;2022-10-23T01:48:32;9.23;;;3.03;;
37905;SDS011;23739;51.448;6.674;2022-10-23T01:51:00;9.38;;;2.58;;
37905;SDS011;23739;51.448;6.674;2022-10-23T01:53:29;13.25;;;3.22;;
37905;SDS011;23739;51.448;6.674;2022-10-23T01:55:56;8.63;;;2.90;;
37905;SDS011;23739;51.448;6.674;2022-10-23T01:58:24;8.55;;;2.78;;
37905;SDS011;23739;51.448;6.674;2022-10-23T02:00:51;8.45;;;2.72;;
37905;SDS011;23739;51.448;6.674;2022-10-23T02:03:19;10.65;;;2.53;;
37905;SDS011;23739;51.448;6.674;2022-10-23T02:05:45;6.93;;;2.42;;
37905;SDS011;23739;51.448;6.674;2022-10-23T02:08:11;5.97;;;2.88;;
37905;SDS011;23739;51.448;6.674;2022-10-23T02:13:32;6.53;;;2.50;;
37905;SDS011;23739;51.448;6.674;2022-10-23T02:23:34;7.72;;;2.63;;
37905;SDS011;23739;51.448;6.674;2022-10-23T02:26:20;6.30;;;2.60;;
37905;SDS011;23739;51.448;6.674;2022-10-23T02:28:50;6.28;;;3.08;;
37905;SDS011;23739;51.448;6.674;2022-10-23T02:31:17;10.35;;;2.70;;
37905;SDS011;23739;51.448;6.674;2022-10-23T02:33:45;6.57;;;2.65;;
37905;SDS011;23739;51.448;6.674;2022-10-23T02:36:12;9.00;;;2.78;;
37905;SDS011;23739;51.448;6.674;2022-10-23T02:38:39;5.78;;;2.70;;
37905;SDS011;23739;51.448;6.674;2022-10-23T02:41:08;10.18;;;2.55;;
37905;SDS011;23739;51.448;6.674;2022-10-23T02:43:56;6.50;;;2.00;;
37905;SDS011;23739;51.448;6.674;2022-10-23T02:47:08;5.25;;;2.40;;
37905;SDS011;23739;51.448;6.674;2022-10-23T02:49:19;6.32;;;2.20;;
37905;SDS011;23739;51.448;6.674;2022-10-23T02:51:54;6.20;;;2.15;;
37905;SDS011;23739;51.448;6.674;2022-10-23T02:57:15;7.03;;;3.05;;
37905;SDS011;23739;51.448;6.674;2022-10-23T02:59:46;10.82;;;2.20;;
37905;SDS011;23739;51.448;6.674;2022-10-23T03:04:42;4.85;;;2.42;;
37905;SDS011;23739;51.448;6.674;2022-10-23T03:07:09;7.20;;;2.80;;
37905;SDS011;23739;51.448;6.674;2022-10-23T03:09:36;4.75;;;2.60;;
37905;SDS011;23739;51.448;6.674;2022-10-23T03:12:02;8.25;;;1.90;;
37905;SDS011;23739;51.448;6.674;2022-10-23T03:14:28;6.93;;;2.03;;
37905;SDS011;23739;51.448;6.674;2022-10-23T03:16:54;5.07;;;2.42;;
37905;SDS011;23739;51.448;6.674;2022-10-23T03:19:20;7.85;;;2.50;;
37905;SDS011;23739;51.448;6.674;2022-10-23T03:21:47;4.88;;;2.13;;
37905;SDS011;23739;51.448;6.674;2022-10-23T03:24:13;9.05;;;2.22;;
37905;SDS011;23739;51.448;6.674;2022-10-23T03:26:39;7.88;;;2.17;;
37905;SDS011;23739;51.448;6.674;2022-10-23T03:29:05;8.95;;;3.05;;
37905;SDS011;23739;51.448;6.674;2022-10-23T03:31:32;6.95;;;1.95;;
37905;SDS011;23739;51.448;6.674;2022-10-23T03:33:58;12.77;;;2.85;;
37905;SDS011;23739;51.448;6.674;2022-10-23T03:36:24;6.35;;;2.38;;
37905;SDS011;23739;51.448;6.674;2022-10-23T03:38:50;5.80;;;2.42;;
37905;SDS011;23739;51.448;6.674;2022-10-23T03:41:16;6.55;;;2.17;;
37905;SDS011;23739;51.448;6.674;2022-10-23T03:43:42;5.43;;;2.30;;
37905;SDS011;23739;51.448;6.674;2022-10-23T03:46:08;8.77;;;2.42;;
37905;SDS011;23739;51.448;6.674;2022-10-23T03:48:37;6.13;;;2.10;;
37905;SDS011;23739;51.448;6.674;2022-10-23T03:51:06;8.40;;;2.50;;
37905;SDS011;23739;51.448;6.674;2022-10-23T03:53:32;4.70;;;1.73;;
37905;SDS011;23739;51.448;6.674;2022-10-23T03:55:58;5.20;;;2.30;;
37905;SDS011;23739;51.448;6.674;2022-10-23T03:58:25;6.60;;;2.80;;
37905;SDS011;23739;51.448;6.674;2022-10-23T04:00:51;7.97;;;2.70;;
37905;SDS011;23739;51.448;6.674;2022-10-23T04:03:17;4.05;;;2.42;;
37905;SDS011;23739;51.448;6.674;2022-10-23T04:05:43;6.32;;;1.63;;
37905;SDS011;23739;51.448;6.674;2022-10-23T04:08:10;11.95;;;2.38;;
37905;SDS011;23739;51.448;6.674;2022-10-23T04:10:36;3.70;;;2.35;;
37905;SDS011;23739;51.448;6.674;2022-10-23T04:13:02;5.35;;;2.28;;
37905;SDS011;23739;51.448;6.674;2022-10-23T04:15:28;6.03;;;2.40;;
37905;SDS011;23739;51.448;6.674;2022-10-23T04:17:54;11.23;;;2.97;;
37905;SDS011;23739;51.448;6.674;2022-10-23T04:20:20;7.47;;;1.85;;
37905;SDS011;23739;51.448;6.674;2022-10-23T04:22:46;8.75;;;2.15;;
37905;SDS011;23739;51.448;6.674;2022-10-23T04:25:13;5.13;;;2.13;;
37905;SDS011;23739;51.448;6.674;2022-10-23T04:27:40;6.20;;;1.90;;
37905;SDS011;23739;51.448;6.674;2022-10-23T04:30:06;9.00;;;2.22;;
37905;SDS011;23739;51.448;6.674;2022-10-23T04:32:33;10.13;;;2.65;;
37905;SDS011;23739;51.448;6.674;2022-10-23T04:34:59;6.82;;;2.08;;
37905;SDS011;23739;51.448;6.674;2022-10-23T04:37:25;8.45;;;2.28;;
37905;SDS011;23739;51.448;6.674;2022-10-23T04:39:52;6.78;;;1.85;;
37905;SDS011;23739;51.448;6.674;2022-10-23T04:42:18;7.38;;;2.17;;
37905;SDS011;23739;51.448;6.674;2022-10-23T04:44:44;10.32;;;2.40;;
37905;SDS011;23739;51.448;6.674;2022-10-23T04:47:10;5.30;;;2.38;;
37905;SDS011;23739;51.448;6.674;2022-10-23T04:49:36;7.93;;;1.85;;
37905;SDS011;23739;51.448;6.674;2022-10-23T04:52:02;6.85;;;2.00;;
37905;SDS011;23739;51.448;6.674;2022-10-23T04:54:33;9.55;;;2.10;;
37905;SDS011;23739;51.448;6.674;2022-10-23T04:56:59;5.50;;;1.95;;
37905;SDS011;23739;51.448;6.674;2022-10-23T04:59:25;3.10;;;1.80;;
37905;SDS011;23739;51.448;6.674;2022-10-23T05:01:52;4.18;;;1.70;;
37905;SDS011;23739;51.448;6.674;2022-10-23T05:04:18;8.32;;;2.25;;
37905;SDS011;23739;51.448;6.674;2022-10-23T05:06:44;5.20;;;2.00;;
37905;SDS011;23739;51.448;6.674;2022-10-23T05:09:10;5.22;;;2.00;;
37905;SDS011;23739;51.448;6.674;2022-10-23T05:11:36;8.40;;;1.88;;
37905;SDS011;23739;51.448;6.674;2022-10-23T05:14:02;4.85;;;2.00;;
37905;SDS011;23739;51.448;6.674;2022-10-23T05:16:36;4.22;;;1.98;;
37905;SDS011;23739;51.448;6.674;2022-10-23T05:19:04;9.85;;;2.28;;
37905;SDS011;23739;51.448;6.674;2022-10-23T05:21:31;8.63;;;1.63;;
37905;SDS011;23739;51.448;6.674;2022-10-23T05:23:59;4.63;;;1.77;;
37905;SDS011;23739;51.448;6.674;2022-10-23T05:26:26;6.35;;;1.52;;
37905;SDS011;23739;51.448;6.674;2022-10-23T05:28:52;4.05;;;2.00;;
37905;SDS011;23739;51.448;6.674;2022-10-23T05:31:19;8.40;;;2.33;;
37905;SDS011;23739;51.448;6.674;2022-10-23T05:33:46;6.38;;;1.85;;
37905;SDS011;23739;51.448;6.674;2022-10-23T05:36:12;9.18;;;1.98;;
37905;SDS011;23739;51.448;6.674;2022-10-23T05:38:39;3.03;;;1.92;;
37905;SDS011;23739;51.448;6.674;2022-10-23T05:41:05;7.57;;;1.92;;
37905;SDS011;23739;51.448;6.674;2022-10-23T05:43:31;8.15;;;1.73;;
37905;SDS011;23739;51.448;6.674;2022-10-23T05:45:57;2.42;;;1.52;;
37905;SDS011;23739;51.448;6.674;2022-10-23T05:48:24;3.88;;;1.88;;
37905;SDS011;23739;51.448;6.674;2022-10-23T05:50:50;5.53;;;1.60;;
37905;SDS011;23739;51.448;6.674;2022-10-23T05:53:16;3.08;;;1.75;;
37905;SDS011;23739;51.448;6.674;2022-10-23T05:55:42;4.75;;;1.63;;
37905;SDS011;23739;51.448;6.674;2022-10-23T05:58:08;1.95;;;1.55;;
37905;SDS011;23739;51.448;6.674;2022-10-23T06:00:34;6.75;;;1.80;;
37905;SDS011;23739;51.448;6.674;2022-10-23T06:03:01;3.63;;;1.67;;
37905;SDS011;23739;51.448;6.674;2022-10-23T06:05:27;4.60;;;1.58;;
37905;SDS011;23739;51.448;6.674;2022-10-23T06:08:00;2.38;;;1.70;;
37905;SDS011;23739;51.448;6.674;2022-10-23T06:10:26;5.22;;;1.67;;
37905;SDS011;23739;51.448;6.674;2022-10-23T06:12:52;7.03;;;2.05;;
37905;SDS011;23739;51.448;6.674;2022-10-23T06:15:18;3.25;;;2.33;;
37905;SDS011;23739;51.448;6.674;2022-10-23T06:17:45;6.55;;;1.50;;
37905;SDS011;23739;51.448;6.674;2022-10-23T06:20:11;4.68;;;1.77;;
37905;SDS011;23739;51.448;6.674;2022-10-23T06:22:37;4.32;;;1.60;;
37905;SDS011;23739;51.448;6.674;2022-10-23T06:25:03;5.10;;;2.05;;
37905;SDS011;23739;51.448;6.674;2022-10-23T06:27:29;5.38;;;1.83;;
37905;SDS011;23739;51.448;6.674;2022-10-23T06:29:55;9.10;;;1.60;;
37905;SDS011;23739;51.448;6.674;2022-10-23T06:32:21;5.00;;;1.67;;
37905;SDS011;23739;51.448;6.674;2022-10-23T06:34:48;3.30;;;1.48;;
37905;SDS011;23739;51.448;6.674;2022-10-23T06:37:14;7.65;;;1.50;;
37905;SDS011;23739;51.448;6.674;2022-10-23T06:39:40;5.93;;;1.92;;
37905;SDS011;23739;51.448;6.674;2022-10-23T06:42:06;4.18;;;1.70;;
37905;SDS011;23739;51.448;6.674;2022-10-23T06:44:32;3.83;;;1.88;;
37905;SDS011;23739;51.448;6.674;2022-10-23T06:46:58;3.33;;;1.77;;
37905;SDS011;23739;51.448;6.674;2022-10-23T06:49:26;8.25;;;1.60;;
37905;SDS011;23739;51.448;6.674;2022-10-23T06:51:52;5.50;;;1.83;;
37905;SDS011;23739;51.448;6.674;2022-10-23T06:54:18;10.90;;;1.83;;
37905;SDS011;23739;51.448;6.674;2022-10-23T06:56:44;4.60;;;2.05;;
37905;SDS011;23739;51.448;6.674;2022-10-23T06:59:10;3.05;;;1.70;;
37905;SDS011;23739;51.448;6.674;2022-10-23T07:01:38;6.10;;;2.08;;
37905;SDS011;23739;51.448;6.674;2022-10-23T07:04:04;4.65;;;1.35;;
37905;SDS011;23739;51.448;6.674;2022-10-23T07:06:30;4.40;;;1.85;;
37905;SDS011;23739;51.448;6.674;2022-10-23T07:08:57;6.22;;;1.70;;
37905;SDS011;23739;51.448;6.674;2022-10-23T07:11:23;4.15;;;1.70;;
37905;SDS011;23739;51.448;6.674;2022-10-23T07:13:50;3.67;;;1.58;;
37905;SDS011;23739;51.448;6.674;2022-10-23T07:16:17;3.03;;;1.60;;
37905;SDS011;23739;51.448;6.674;2022-10-23T07:18:45;8.10;;;1.85;;
37905;SDS011;23739;51.448;6.674;2022-10-23T07:21:12;4.97;;;1.90;;
37905;SDS011;23739;51.448;6.674;2022-10-23T07:23:38;3.55;;;1.75;;
37905;SDS011;23739;51.448;6.674;2022-10-23T07:26:08;8.45;;;1.58;;
37905;SDS011;23739;51.448;6.674;2022-10-23T07:28:34;6.43;;;1.90;;
37905;SDS011;23739;51.448;6.674;2022-10-23T07:31:01;11.30;;;1.55;;
37905;SDS011;23739;51.448;6.674;2022-10-23T07:33:27;4.90;;;1.50;;
37905;SDS011;23739;51.448;6.674;2022-10-23T07:35:54;10.65;;;1.80;;
37905;SDS011;23739;51.448;6.674;2022-10-23T07:38:20;7.47;;;1.65;;
37905;SDS011;23739;51.448;6.674;2022-10-23T07:40:46;8.27;;;1.77;;
37905;SDS011;23739;51.448;6.674;2022-10-23T07:43:12;4.85;;;1.73;;
37905;SDS011;23739;51.448;6.674;2022-10-23T07:45:38;4.43;;;1.40;;
37905;SDS011;23739;51.448;6.674;2022-10-23T07:48:05;3.42;;;1.60;;
37905;SDS011;23739;51.448;6.674;2022-10-23T07:50:31;3.75;;;1.48;;
37905;SDS011;23739;51.448;6.674;2022-10-23T07:52:58;4.43;;;1.92;;
37905;SDS011;23739;51.448;6.674;2022-10-23T07:55:24;5.70;;;2.08;;
37905;SDS011;23739;51.448;6.674;2022-10-23T07:57:50;2.58;;;1.45;;
37905;SDS011;23739;51.448;6.674;2022-10-23T08:00:17;5.85;;;1.63;;
37905;SDS011;23739;51.448;6.674;2022-10-23T08:02:44;3.78;;;2.05;;
37905;SDS011;23739;51.448;6.674;2022-10-23T08:05:10;6.13;;;2.20;;
37905;SDS011;23739;51.448;6.674;2022-10-23T08:07:36;6.45;;;1.55;;
37905;SDS011;23739;51.448;6.674;2022-10-23T08:10:02;13.85;;;3.22;;
37905;SDS011;23739;51.448;6.674;2022-10-23T08:12:29;6.28;;;1.67;;
37905;SDS011;23739;51.448;6.674;2022-10-23T08:14:55;4.25;;;1.45;;
37905;SDS011;23739;51.448;6.674;2022-10-23T08:17:21;2.20;;;1.13;;
37905;SDS011;23739;51.448;6.674;2022-10-23T08:19:48;6.32;;;1.95;;
37905;SDS011;23739;51.448;6.674;2022-10-23T08:22:14;6.07;;;2.03;;
37905;SDS011;23739;51.448;6.674;2022-10-23T08:24:40;7.53;;;1.75;;
37905;SDS011;23739;51.448;6.674;2022-10-23T08:27:06;8.85;;;1.77;;
37905;SDS011;23739;51.448;6.674;2022-10-23T08:29:33;3.05;;;1.30;;
37905;SDS011;23739;51.448;6.674;2022-10-23T08:31:59;5.68;;;1.40;;
37905;SDS011;23739;51.448;6.674;2022-10-23T08:34:25;5.35;;;1.55;;
37905;SDS011;23739;51.448;6.674;2022-10-23T08:36:52;6.20;;;1.65;;
37905;SDS011;23739;51.448;6.674;2022-10-23T08:39:18;6.30;;;1.45;;
37905;SDS011;23739;51.448;6.674;2022-10-23T08:41:48;5.05;;;2.05;;
37905;SDS011;23739;51.448;6.674;2022-10-23T08:44:29;3.38;;;1.30;;
37905;SDS011;23739;51.448;6.674;2022-10-23T08:52:01;2.97;;;1.55;;
37905;SDS011;23739;51.448;6.674;2022-10-23T08:54:43;2.72;;;1.20;;
37905;SDS011;23739;51.448;6.674;2022-10-23T08:57:15;5.03;;;1.10;;
37905;SDS011;23739;51.448;6.674;2022-10-23T08:59:45;3.38;;;1.50;;
37905;SDS011;23739;51.448;6.674;2022-10-23T09:02:14;8.88;;;2.13;;
37905;SDS011;23739;51.448;6.674;2022-10-23T09:04:42;1.33;;;0.82;;
37905;SDS011;23739;51.448;6.674;2022-10-23T09:12:15;2.33;;;0.75;;
37905;SDS011;23739;51.448;6.674;2022-10-23T09:17:27;11.05;;;1.95;;
37905;SDS011;23739;51.448;6.674;2022-10-23T09:22:27;5.65;;;1.20;;
37905;SDS011;23739;51.448;6.674;2022-10-23T09:24:53;2.85;;;1.05;;
37905;SDS011;23739;51.448;6.674;2022-10-23T09:27:19;4.40;;;1.30;;
37905;SDS011;23739;51.448;6.674;2022-10-23T09:29:47;3.00;;;1.08;;
37905;SDS011;23739;51.448;6.674;2022-10-23T09:32:14;9.15;;;2.65;;
37905;SDS011;23739;51.448;6.674;2022-10-23T09:34:48;4.38;;;1.70;;
37905;SDS011;23739;51.448;6.674;2022-10-23T09:37:22;4.43;;;1.50;;
37905;SDS011;23739;51.448;6.674;2022-10-23T09:39:58;7.38;;;1.77;;
37905;SDS011;23739;51.448;6.674;2022-10-23T09:42:25;4.68;;;1.58;;
37905;SDS011;23739;51.448;6.674;2022-10-23T09:44:52;5.65;;;1.50;;
37905;SDS011;23739;51.448;6.674;2022-10-23T09:47:20;6.90;;;1.95;;
37905;SDS011;23739;51.448;6.674;2022-10-23T09:49:50;4.88;;;1.38;;
37905;SDS011;23739;51.448;6.674;2022-10-23T09:54:45;1.63;;;1.13;;
37905;SDS011;23739;51.448;6.674;2022-10-23T09:59:40;4.57;;;1.60;;
37905;SDS011;23739;51.448;6.674;2022-10-23T10:04:51;4.90;;;1.13;;
37905;SDS011;23739;51.448;6.674;2022-10-23T10:07:22;7.13;;;1.38;;
37905;SDS011;23739;51.448;6.674;2022-10-23T10:09:48;4.90;;;1.33;;
37905;SDS011;23739;51.448;6.674;2022-10-23T10:12:18;2.95;;;1.15;;
37905;SDS011;23739;51.448;6.674;2022-10-23T10:22:52;5.22;;;1.02;;
37905;SDS011;23739;51.448;6.674;2022-10-23T10:25:29;5.10;;;1.35;;
37905;SDS011;23739;51.448;6.674;2022-10-23T10:30:59;5.28;;;1.10;;
37905;SDS011;23739;51.448;6.674;2022-10-23T10:33:33;2.55;;;1.10;;
37905;SDS011;23739;51.448;6.674;2022-10-23T10:38:42;8.40;;;2.72;;
37905;SDS011;23739;51.448;6.674;2022-10-23T10:46:13;7.53;;;1.30;;
37905;SDS011;23739;51.448;6.674;2022-10-23T10:51:07;3.65;;;1.10;;
37905;SDS011;23739;51.448;6.674;2022-10-23T10:56:03;5.97;;;1.10;;
37905;SDS011;23739;51.448;6.674;2022-10-23T10:58:40;2.72;;;1.83;;
37905;SDS011;23739;51.448;6.674;2022-10-23T11:03:56;2.45;;;0.82;;
37905;SDS011;23739;51.448;6.674;2022-10-23T11:06:25;3.47;;;1.00;;
37905;SDS011;23739;51.448;6.674;2022-10-23T11:08:52;4.30;;;1.60;;
37905;SDS011;23739;51.448;6.674;2022-10-23T11:11:29;3.85;;;1.50;;
37905;SDS011;23739;51.448;6.674;2022-10-23T11:13:57;2.20;;;1.40;;
37905;SDS011;23739;51.448;6.674;2022-10-23T11:16:31;5.75;;;1.65;;
37905;SDS011;23739;51.448;6.674;2022-10-23T11:34:47;5.13;;;2.20;;
37905;SDS011;23739;51.448;6.674;2022-10-23T11:37:19;5.07;;;1.20;;
37905;SDS011;23739;51.448;6.674;2022-10-23T11:39:57;3.70;;;1.58;;
37905;SDS011;23739;51.448;6.674;2022-10-23T11:44:59;1.52;;;1.20;;
37905;SDS011;23739;51.448;6.674;2022-10-23T11:52:34;3.78;;;1.10;;
37905;SDS011;23739;51.448;6.674;2022-10-23T11:55:21;3.85;;;1.17;;
37905;SDS011;23739;51.448;6.674;2022-10-23T12:00:30;3.37;;;1.30;;
37905;SDS011;23739;51.448;6.674;2022-10-23T12:02:57;6.20;;;1.20;;
37905;SDS011;23739;51.448;6.674;2022-10-23T12:05:33;3.90;;;1.10;;
37905;SDS011;23739;51.448;6.674;2022-10-23T12:08:02;2.65;;;0.93;;
37905;SDS011;23739;51.448;6.674;2022-10-23T12:10:33;4.82;;;0.90;;
37905;SDS011;23739;51.448;6.674;2022-10-23T12:13:25;6.07;;;1.10;;
37905;SDS011;23739;51.448;6.674;2022-10-23T12:15:52;4.32;;;1.45;;
37905;SDS011;23739;51.448;6.674;2022-10-23T12:18:19;4.35;;;1.25;;
37905;SDS011;23739;51.448;6.674;2022-10-23T12:20:48;3.25;;;1.50;;
37905;SDS011;23739;51.448;6.674;2022-10-23T12:23:32;2.60;;;1.00;;
37905;SDS011;23739;51.448;6.674;2022-10-23T12:38:48;8.60;;;1.27;;
37905;SDS011;23739;51.448;6.674;2022-10-23T12:43:44;4.30;;;1.00;;
37905;SDS011;23739;51.448;6.674;2022-10-23T12:46:24;3.17;;;1.13;;
37905;SDS011;23739;51.448;6.674;2022-10-23T12:48:53;7.20;;;2.08;;
37905;SDS011;23739;51.448;6.674;2022-10-23T12:53:53;5.20;;;1.35;;
37905;SDS011;23739;51.448;6.674;2022-10-23T12:56:19;6.38;;;1.00;;
37905;SDS011;23739;51.448;6.674;2022-10-23T12:58:53;3.90;;;1.08;;
37905;SDS011;23739;51.448;6.674;2022-10-23T13:01:32;8.88;;;1.73;;
37905;SDS011;23739;51.448;6.674;2022-10-23T13:04:33;4.47;;;1.50;;
37905;SDS011;23739;51.448;6.674;2022-10-23T13:06:51;5.72;;;2.25;;
37905;SDS011;23739;51.448;6.674;2022-10-23T13:09:23;4.22;;;1.23;;
37905;SDS011;23739;51.448;6.674;2022-10-23T13:11:52;7.55;;;1.52;;
37905;SDS011;23739;51.448;6.674;2022-10-23T13:14:39;3.53;;;1.17;;
37905;SDS011;23739;51.448;6.674;2022-10-23T13:17:07;4.45;;;1.17;;
37905;SDS011;23739;51.448;6.674;2022-10-23T13:19:34;2.38;;;0.90;;
37905;SDS011;23739;51.448;6.674;2022-10-23T13:22:02;3.47;;;1.40;;
37905;SDS011;23739;51.448;6.674;2022-10-23T13:24:29;3.90;;;1.27;;
37905;SDS011;23739;51.448;6.674;2022-10-23T13:26:56;2.45;;;1.05;;
37905;SDS011;23739;51.448;6.674;2022-10-23T13:31:48;4.05;;;1.48;;
37905;SDS011;23739;51.448;6.674;2022-10-23T13:36:48;4.60;;;1.08;;
37905;SDS011;23739;51.448;6.674;2022-10-23T13:39:15;3.20;;;1.20;;
37905;SDS011;23739;51.448;6.674;2022-10-23T13:41:42;3.42;;;1.98;;
37905;SDS011;23739;51.448;6.674;2022-10-23T13:44:13;2.70;;;1.35;;
37905;SDS011;23739;51.448;6.674;2022-10-23T13:46:39;3.95;;;1.80;;
37905;SDS011;23739;51.448;6.674;2022-10-23T13:49:08;6.97;;;1.65;;
37905;SDS011;23739;51.448;6.674;2022-10-23T13:51:39;3.95;;;1.20;;
37905;SDS011;23739;51.448;6.674;2022-10-23T13:54:09;4.45;;;1.40;;
37905;SDS011;23739;51.448;6.674;2022-10-23T13:56:37;5.50;;;1.73;;
37905;SDS011;23739;51.448;6.674;2022-10-23T13:59:03;3.80;;;1.23;;
37905;SDS011;23739;51.448;6.674;2022-10-23T14:01:31;7.05;;;1.40;;
37905;SDS011;23739;51.448;6.674;2022-10-23T14:03:59;8.80;;;1.67;;
37905;SDS011;23739;51.448;6.674;2022-10-23T14:06:25;5.28;;;1.48;;
37905;SDS011;23739;51.448;6.674;2022-10-23T14:08:51;5.30;;;1.80;;
37905;SDS011;23739;51.448;6.674;2022-10-23T14:11:18;3.05;;;1.20;;
37905;SDS011;23739;51.448;6.674;2022-10-23T14:13:44;4.80;;;1.67;;
37905;SDS011;23739;51.448;6.674;2022-10-23T14:16:11;2.92;;;1.73;;
37905;SDS011;23739;51.448;6.674;2022-10-23T14:18:38;1.75;;;1.10;;
37905;SDS011;23739;51.448;6.674;2022-10-23T14:21:05;2.33;;;1.20;;
37905;SDS011;23739;51.448;6.674;2022-10-23T14:23:31;4.95;;;2.08;;
37905;SDS011;23739;51.448;6.674;2022-10-23T14:26:01;6.28;;;2.13;;
37905;SDS011;23739;51.448;6.674;2022-10-23T14:28:27;6.43;;;2.47;;
37905;SDS011;23739;51.448;6.674;2022-10-23T14:30:53;3.50;;;1.50;;
37905;SDS011;23739;51.448;6.674;2022-10-23T14:33:19;7.32;;;1.70;;
37905;SDS011;23739;51.448;6.674;2022-10-23T14:35:48;5.93;;;1.73;;
37905;SDS011;23739;51.448;6.674;2022-10-23T14:38:14;6.00;;;2.13;;
37905;SDS011;23739;51.448;6.674;2022-10-23T14:40:40;4.90;;;1.48;;
37905;SDS011;23739;51.448;6.674;2022-10-23T14:43:06;3.92;;;1.70;;
37905;SDS011;23739;51.448;6.674;2022-10-23T14:45:32;3.33;;;1.30;;
37905;SDS011;23739;51.448;6.674;2022-10-23T14:47:58;3.80;;;1.40;;
37905;SDS011;23739;51.448;6.674;2022-10-23T14:50:26;4.72;;;1.40;;
37905;SDS011;23739;51.448;6.674;2022-10-23T14:52:52;4.90;;;1.75;;
37905;SDS011;23739;51.448;6.674;2022-10-23T14:55:19;3.58;;;1.77;;
37905;SDS011;23739;51.448;6.674;2022-10-23T14:57:45;3.95;;;1.77;;
37905;SDS011;23739;51.448;6.674;2022-10-23T15:00:11;5.40;;;1.38;;
37905;SDS011;23739;51.448;6.674;2022-10-23T15:02:37;3.05;;;1.42;;
37905;SDS011;23739;51.448;6.674;2022-10-23T15:05:04;7.68;;;2.05;;
37905;SDS011;23739;51.448;6.674;2022-10-23T15:07:30;7.55;;;3.85;;
37905;SDS011;23739;51.448;6.674;2022-10-23T15:09:56;10.77;;;4.75;;
37905;SDS011;23739;51.448;6.674;2022-10-23T15:12:22;10.85;;;4.13;;
37905;SDS011;23739;51.448;6.674;2022-10-23T15:14:49;11.00;;;2.90;;
37905;SDS011;23739;51.448;6.674;2022-10-23T15:17:15;4.25;;;2.08;;
37905;SDS011;23739;51.448;6.674;2022-10-23T15:19:41;6.13;;;1.73;;
37905;SDS011;23739;51.448;6.674;2022-10-23T15:22:07;6.80;;;1.58;;
37905;SDS011;23739;51.448;6.674;2022-10-23T15:24:33;4.68;;;1.85;;
37905;SDS011;23739;51.448;6.674;2022-10-23T15:26:59;8.77;;;2.75;;
37905;SDS011;23739;51.448;6.674;2022-10-23T15:29:26;8.32;;;2.83;;
37905;SDS011;23739;51.448;6.674;2022-10-23T15:31:54;6.97;;;2.60;;
37905;SDS011;23739;51.448;6.674;2022-10-23T15:34:21;7.05;;;2.85;;
37905;SDS011;23739;51.448;6.674;2022-10-23T15:36:48;10.95;;;3.67;;
37905;SDS011;23739;51.448;6.674;2022-10-23T15:39:23;11.02;;;3.95;;
37905;SDS011;23739;51.448;6.674;2022-10-23T15:41:51;10.55;;;3.17;;
37905;SDS011;23739;51.448;6.674;2022-10-23T15:44:18;10.38;;;4.03;;
37905;SDS011;23739;51.448;6.674;2022-10-23T15:46:45;7.53;;;3.45;;
37905;SDS011;23739;51.448;6.674;2022-10-23T15:49:12;11.38;;;5.28;;
37905;SDS011;23739;51.448;6.674;2022-10-23T15:51:38;16.20;;;7.93;;
37905;SDS011;23739;51.448;6.674;2022-10-23T15:54:05;19.85;;;8.70;;
37905;SDS011;23739;51.448;6.674;2022-10-23T15:56:32;19.10;;;8.40;;
37905;SDS011;23739;51.448;6.674;2022-10-23T15:58:59;12.02;;;5.47;;
37905;SDS011;23739;51.448;6.674;2022-10-23T16:01:25;5.30;;;3.30;;
37905;SDS011;23739;51.448;6.674;2022-10-23T16:03:51;7.18;;;3.75;;
37905;SDS011;23739;51.448;6.674;2022-10-23T16:06:18;8.02;;;3.83;;
37905;SDS011;23739;51.448;6.674;2022-10-23T16:08:45;7.22;;;4.53;;
37905;SDS011;23739;51.448;6.674;2022-10-23T16:11:12;13.15;;;7.53;;
37905;SDS011;23739;51.448;6.674;2022-10-23T16:13:38;19.45;;;7.78;;
37905;SDS011;23739;51.448;6.674;2022-10-23T16:16:05;12.80;;;7.25;;
37905;SDS011;23739;51.448;6.674;2022-10-23T16:18:31;13.02;;;5.85;;
37905;SDS011;23739;51.448;6.674;2022-10-23T16:20:57;8.95;;;5.53;;
37905;SDS011;23739;51.448;6.674;2022-10-23T16:23:23;11.43;;;5.72;;
37905;SDS011;23739;51.448;6.674;2022-10-23T16:25:53;5.57;;;3.63;;
37905;SDS011;23739;51.448;6.674;2022-10-23T16:28:19;14.40;;;3.88;;
37905;SDS011;23739;51.448;6.674;2022-10-23T16:30:45;5.20;;;3.10;;
37905;SDS011;23739;51.448;6.674;2022-10-23T16:33:11;12.95;;;3.10;;
37905;SDS011;23739;51.448;6.674;2022-10-23T16:35:38;16.92;;;3.45;;
37905;SDS011;23739;51.448;6.674;2022-10-23T16:38:04;8.88;;;2.58;;
37905;SDS011;23739;51.448;6.674;2022-10-23T16:40:30;7.60;;;2.65;;
37905;SDS011;23739;51.448;6.674;2022-10-23T16:42:57;4.47;;;2.70;;
37905;SDS011;23739;51.448;6.674;2022-10-23T16:45:23;3.55;;;2.38;;
37905;SDS011;23739;51.448;6.674;2022-10-23T16:47:49;7.70;;;2.60;;
37905;SDS011;23739;51.448;6.674;2022-10-23T16:50:15;3.03;;;2.30;;
37905;SDS011;23739;51.448;6.674;2022-10-23T16:52:42;9.85;;;2.97;;
37905;SDS011;23739;51.448;6.674;2022-10-23T16:55:08;10.40;;;2.95;;
37905;SDS011;23739;51.448;6.674;2022-10-23T16:57:35;5.40;;;2.85;;
37905;SDS011;23739;51.448;6.674;2022-10-23T17:00:01;5.10;;;3.08;;
37905;SDS011;23739;51.448;6.674;2022-10-23T17:02:28;7.30;;;2.65;;